sensor_id;sensor_type;location;lat;lon;timestamp;temperature;humidity
364;DHT22;173;48.718;9.274;2022-12-11T00:02:12;-0.30;99.50
364;DHT22;173;48.718;9.274;2022-12-11T00:04:46;-0.30;99.50
364;DHT22;173;48.718;9.274;2022-12-11T00:07:18;-0.30;99.50
364;DHT22;173;48.718;9.274;2022-12-11T00:09:52;-0.30;99.50
364;DHT22;173;48.718;9.274;2022-12-11T00:12:24;-0.30;99.50
364;DHT22;173;48.718;9.274;2022-12-11T00:14:56;-0.30;99.50
364;DHT22;173;48.718;9.274;2022-12-11T00:17:26;-0.30;99.50
364;DHT22;173;48.718;9.274;2022-12-11T00:19:58;-0.30;99.50
364;DHT22;173;48.718;9.274;2022-12-11T00:22:31;-0.30;99.50
364;DHT22;173;48.718;9.274;2022-12-11T00:25:03;-0.30;99.50
364;DHT22;173;48.718;9.274;2022-12-11T00:27:35;-0.40;99.50
364;DHT22;173;48.718;9.274;2022-12-11T00:30:09;-0.50;99.50
364;DHT22;173;48.718;9.274;2022-12-11T00:32:42;-0.40;99.50
364;DHT22;173;48.718;9.274;2022-12-11T00:35:12;-0.50;99.50
364;DHT22;173;48.718;9.274;2022-12-11T00:37:44;-0.50;99.50
364;DHT22;173;48.718;9.274;2022-12-11T00:40:16;-0.50;99.50
364;DHT22;173;48.718;9.274;2022-12-11T00:42:48;-0.50;99.50
364;DHT22;173;48.718;9.274;2022-12-11T00:45:22;-0.50;99.50
364;DHT22;173;48.718;9.274;2022-12-11T00:47:54;-0.50;99.50
364;DHT22;173;48.718;9.274;2022-12-11T00:50:26;-0.40;99.50
364;DHT22;173;48.718;9.274;2022-12-11T00:52:58;-0.40;99.50
364;DHT22;173;48.718;9.274;2022-12-11T00:55:30;-0.40;99.50
364;DHT22;173;48.718;9.274;2022-12-11T00:58:06;-0.30;99.50
364;DHT22;173;48.718;9.274;2022-12-11T01:00:42;-0.20;99.50
364;DHT22;173;48.718;9.274;2022-12-11T01:03:16;-0.20;99.50
364;DHT22;173;48.718;9.274;2022-12-11T01:05:52;-0.10;99.50
364;DHT22;173;48.718;9.274;2022-12-11T01:08:26;-0.10;99.50
364;DHT22;173;48.718;9.274;2022-12-11T01:11:10;0.00;99.50
364;DHT22;173;48.718;9.274;2022-12-11T01:13:39;0.10;99.50
364;DHT22;173;48.718;9.274;2022-12-11T01:16:12;0.10;99.50
364;DHT22;173;48.718;9.274;2022-12-11T01:18:43;0.10;99.00
364;DHT22;173;48.718;9.274;2022-12-11T01:21:15;0.20;98.90
364;DHT22;173;48.718;9.274;2022-12-11T01:23:48;0.20;98.80
364;DHT22;173;48.718;9.274;2022-12-11T01:26:20;0.20;98.80
364;DHT22;173;48.718;9.274;2022-12-11T01:28:52;0.30;98.70
364;DHT22;173;48.718;9.274;2022-12-11T01:31:26;0.20;98.40
364;DHT22;173;48.718;9.274;2022-12-11T01:33:58;0.20;98.20
364;DHT22;173;48.718;9.274;2022-12-11T01:36:30;0.20;98.30
364;DHT22;173;48.718;9.274;2022-12-11T01:39:04;0.20;98.20
364;DHT22;173;48.718;9.274;2022-12-11T01:41:36;0.20;98.30
364;DHT22;173;48.718;9.274;2022-12-11T01:47:19;0.10;97.80
364;DHT22;173;48.718;9.274;2022-12-11T01:49:51;0.00;97.90
364;DHT22;173;48.718;9.274;2022-12-11T01:52:23;0.00;98.10
364;DHT22;173;48.718;9.274;2022-12-11T01:54:53;-0.10;98.50
364;DHT22;173;48.718;9.274;2022-12-11T01:57:25;0.00;99.10
364;DHT22;173;48.718;9.274;2022-12-11T01:59:57;0.10;99.10
364;DHT22;173;48.718;9.274;2022-12-11T02:02:52;0.10;99.00
364;DHT22;173;48.718;9.274;2022-12-11T02:05:24;0.20;98.90
364;DHT22;173;48.718;9.274;2022-12-11T02:08:00;0.20;98.60
364;DHT22;173;48.718;9.274;2022-12-11T02:13:34;0.00;98.80
364;DHT22;173;48.718;9.274;2022-12-11T02:16:18;0.10;99.40
364;DHT22;173;48.718;9.274;2022-12-11T02:21:40;-0.10;99.10
364;DHT22;173;48.718;9.274;2022-12-11T02:24:31;-0.10;99.30
364;DHT22;173;48.718;9.274;2022-12-11T02:30:05;0.10;99.50
364;DHT22;173;48.718;9.274;2022-12-11T02:35:30;0.10;99.20
364;DHT22;173;48.718;9.274;2022-12-11T02:38:07;0.00;99.40
364;DHT22;173;48.718;9.274;2022-12-11T02:40:42;0.00;99.50
364;DHT22;173;48.718;9.274;2022-12-11T02:43:16;0.10;99.40
364;DHT22;173;48.718;9.274;2022-12-11T02:45:50;0.00;99.10
364;DHT22;173;48.718;9.274;2022-12-11T02:48:23;-0.10;99.00
364;DHT22;173;48.718;9.274;2022-12-11T02:50:56;-0.20;99.50
364;DHT22;173;48.718;9.274;2022-12-11T02:53:30;-0.20;99.50
364;DHT22;173;48.718;9.274;2022-12-11T02:56:05;-0.20;99.50
364;DHT22;173;48.718;9.274;2022-12-11T02:58:42;-0.30;99.50
364;DHT22;173;48.718;9.274;2022-12-11T03:01:17;-0.40;99.50
364;DHT22;173;48.718;9.274;2022-12-11T03:03:52;-0.40;99.50
364;DHT22;173;48.718;9.274;2022-12-11T03:06:35;-0.30;99.50
364;DHT22;173;48.718;9.274;2022-12-11T03:09:11;-0.30;99.50
364;DHT22;173;48.718;9.274;2022-12-11T03:11:45;-0.30;99.50
364;DHT22;173;48.718;9.274;2022-12-11T03:14:19;-0.20;99.50
364;DHT22;173;48.718;9.274;2022-12-11T03:17:04;-0.10;99.50
364;DHT22;173;48.718;9.274;2022-12-11T03:19:44;-0.10;99.50
364;DHT22;173;48.718;9.274;2022-12-11T03:25:22;0.00;99.50
364;DHT22;173;48.718;9.274;2022-12-11T03:28:06;0.10;99.50
364;DHT22;173;48.718;9.274;2022-12-11T03:30:42;0.00;99.30
364;DHT22;173;48.718;9.274;2022-12-11T03:33:32;0.10;99.50
364;DHT22;173;48.718;9.274;2022-12-11T03:36:10;0.10;99.30
364;DHT22;173;48.718;9.274;2022-12-11T03:38:52;0.00;99.10
364;DHT22;173;48.718;9.274;2022-12-11T03:41:28;0.00;99.10
364;DHT22;173;48.718;9.274;2022-12-11T03:46:36;0.00;99.10
364;DHT22;173;48.718;9.274;2022-12-11T03:49:18;0.00;99.40
364;DHT22;173;48.718;9.274;2022-12-11T03:51:53;0.00;99.20
364;DHT22;173;48.718;9.274;2022-12-11T03:54:28;0.00;99.50
364;DHT22;173;48.718;9.274;2022-12-11T03:57:02;0.00;99.30
364;DHT22;173;48.718;9.274;2022-12-11T03:59:35;0.00;98.80
364;DHT22;173;48.718;9.274;2022-12-11T04:02:07;-0.10;98.80
364;DHT22;173;48.718;9.274;2022-12-11T04:04:42;0.00;99.20
364;DHT22;173;48.718;9.274;2022-12-11T04:07:16;0.00;98.80
364;DHT22;173;48.718;9.274;2022-12-11T04:09:50;0.00;98.60
364;DHT22;173;48.718;9.274;2022-12-11T04:12:24;0.00;98.40
364;DHT22;173;48.718;9.274;2022-12-11T04:14:58;0.00;98.60
364;DHT22;173;48.718;9.274;2022-12-11T04:17:34;0.10;98.60
364;DHT22;173;48.718;9.274;2022-12-11T04:20:25;0.10;98.40
364;DHT22;173;48.718;9.274;2022-12-11T04:23:16;0.00;98.20
364;DHT22;173;48.718;9.274;2022-12-11T04:26:13;-0.10;98.20
364;DHT22;173;48.718;9.274;2022-12-11T04:28:48;-0.10;98.80
364;DHT22;173;48.718;9.274;2022-12-11T04:31:22;-0.10;98.90
364;DHT22;173;48.718;9.274;2022-12-11T04:33:56;0.00;99.00
364;DHT22;173;48.718;9.274;2022-12-11T04:36:30;0.10;99.10
364;DHT22;173;48.718;9.274;2022-12-11T04:39:05;0.10;98.70
364;DHT22;173;48.718;9.274;2022-12-11T04:41:39;0.10;98.40
364;DHT22;173;48.718;9.274;2022-12-11T04:44:11;0.10;98.50
364;DHT22;173;48.718;9.274;2022-12-11T04:46:45;0.00;98.10
364;DHT22;173;48.718;9.274;2022-12-11T04:49:19;0.00;98.10
364;DHT22;173;48.718;9.274;2022-12-11T04:51:53;-0.10;98.00
364;DHT22;173;48.718;9.274;2022-12-11T04:54:28;-0.10;98.30
364;DHT22;173;48.718;9.274;2022-12-11T04:57:02;-0.20;98.50
364;DHT22;173;48.718;9.274;2022-12-11T04:59:36;-0.20;98.90
364;DHT22;173;48.718;9.274;2022-12-11T05:02:10;-0.30;98.80
364;DHT22;173;48.718;9.274;2022-12-11T05:04:43;-0.30;99.10
364;DHT22;173;48.718;9.274;2022-12-11T05:07:17;-0.40;99.40
364;DHT22;173;48.718;9.274;2022-12-11T05:09:49;-0.50;99.40
364;DHT22;173;48.718;9.274;2022-12-11T05:12:23;-0.50;99.30
364;DHT22;173;48.718;9.274;2022-12-11T05:14:53;-0.60;98.80
364;DHT22;173;48.718;9.274;2022-12-11T05:17:25;-0.60;99.20
364;DHT22;173;48.718;9.274;2022-12-11T05:19:57;-0.70;98.90
364;DHT22;173;48.718;9.274;2022-12-11T05:22:31;-0.80;99.50
364;DHT22;173;48.718;9.274;2022-12-11T05:25:04;-0.80;99.50
364;DHT22;173;48.718;9.274;2022-12-11T05:28:32;-0.80;99.50
364;DHT22;173;48.718;9.274;2022-12-11T05:33:46;-0.70;99.50
364;DHT22;173;48.718;9.274;2022-12-11T05:36:22;-0.60;99.50
364;DHT22;173;48.718;9.274;2022-12-11T05:38:56;-0.60;99.30
364;DHT22;173;48.718;9.274;2022-12-11T05:41:29;-0.50;99.50
364;DHT22;173;48.718;9.274;2022-12-11T05:44:04;-0.60;99.20
364;DHT22;173;48.718;9.274;2022-12-11T05:46:36;-0.60;99.20
364;DHT22;173;48.718;9.274;2022-12-11T05:49:08;-0.60;99.00
364;DHT22;173;48.718;9.274;2022-12-11T05:51:41;-0.80;99.20
364;DHT22;173;48.718;9.274;2022-12-11T05:54:14;-0.90;99.40
364;DHT22;173;48.718;9.274;2022-12-11T05:56:48;-0.90;99.50
364;DHT22;173;48.718;9.274;2022-12-11T05:59:21;-0.80;99.50
364;DHT22;173;48.718;9.274;2022-12-11T06:01:53;-0.90;99.50
364;DHT22;173;48.718;9.274;2022-12-11T06:04:25;-1.00;99.50
364;DHT22;173;48.718;9.274;2022-12-11T06:06:57;-1.00;99.50
364;DHT22;173;48.718;9.274;2022-12-11T06:09:30;-0.90;99.50
364;DHT22;173;48.718;9.274;2022-12-11T06:12:02;-1.00;99.50
364;DHT22;173;48.718;9.274;2022-12-11T06:14:36;-1.00;99.50
364;DHT22;173;48.718;9.274;2022-12-11T06:17:08;-0.90;99.50
364;DHT22;173;48.718;9.274;2022-12-11T06:19:40;-1.00;99.50
364;DHT22;173;48.718;9.274;2022-12-11T06:22:12;-1.00;99.50
364;DHT22;173;48.718;9.274;2022-12-11T06:24:46;-1.00;99.50
364;DHT22;173;48.718;9.274;2022-12-11T06:27:16;-0.90;99.50
364;DHT22;173;48.718;9.274;2022-12-11T06:32:18;-0.90;99.50
364;DHT22;173;48.718;9.274;2022-12-11T06:34:52;-0.80;99.50
364;DHT22;173;48.718;9.274;2022-12-11T06:37:24;-0.80;99.50
364;DHT22;173;48.718;9.274;2022-12-11T06:39:56;-0.80;99.50
364;DHT22;173;48.718;9.274;2022-12-11T06:42:30;-0.80;99.50
364;DHT22;173;48.718;9.274;2022-12-11T06:45:04;-0.90;99.50
364;DHT22;173;48.718;9.274;2022-12-11T06:47:37;-0.90;99.50
364;DHT22;173;48.718;9.274;2022-12-11T06:50:09;-0.90;99.50
364;DHT22;173;48.718;9.274;2022-12-11T06:52:39;-1.00;99.50
364;DHT22;173;48.718;9.274;2022-12-11T06:55:11;-1.10;99.50
364;DHT22;173;48.718;9.274;2022-12-11T06:57:43;-1.20;99.50
364;DHT22;173;48.718;9.274;2022-12-11T07:00:17;-1.30;99.50
364;DHT22;173;48.718;9.274;2022-12-11T07:02:51;-1.20;99.50
364;DHT22;173;48.718;9.274;2022-12-11T07:05:24;-1.20;99.50
364;DHT22;173;48.718;9.274;2022-12-11T07:07:56;-1.20;99.50
364;DHT22;173;48.718;9.274;2022-12-11T07:10:27;-1.20;99.50
364;DHT22;173;48.718;9.274;2022-12-11T07:12:59;-1.10;99.50
364;DHT22;173;48.718;9.274;2022-12-11T07:15:33;-1.00;99.50
364;DHT22;173;48.718;9.274;2022-12-11T07:18:05;-1.00;99.50
364;DHT22;173;48.718;9.274;2022-12-11T07:20:37;-0.80;99.50
364;DHT22;173;48.718;9.274;2022-12-11T07:23:09;-0.90;99.50
364;DHT22;173;48.718;9.274;2022-12-11T07:25:41;-0.90;99.50
364;DHT22;173;48.718;9.274;2022-12-11T07:28:13;-0.80;99.50
364;DHT22;173;48.718;9.274;2022-12-11T07:33:32;-0.70;99.10
364;DHT22;173;48.718;9.274;2022-12-11T07:36:09;-0.80;98.80
364;DHT22;173;48.718;9.274;2022-12-11T07:38:42;-0.70;98.90
364;DHT22;173;48.718;9.274;2022-12-11T07:41:15;-0.60;98.80
364;DHT22;173;48.718;9.274;2022-12-11T07:43:47;-0.50;98.40
364;DHT22;173;48.718;9.274;2022-12-11T07:46:25;-0.50;98.30
364;DHT22;173;48.718;9.274;2022-12-11T07:48:58;-0.50;98.20
364;DHT22;173;48.718;9.274;2022-12-11T07:51:32;-0.40;97.90
364;DHT22;173;48.718;9.274;2022-12-11T07:54:12;-0.30;97.60
364;DHT22;173;48.718;9.274;2022-12-11T07:56:46;-0.30;97.40
364;DHT22;173;48.718;9.274;2022-12-11T07:59:18;-0.30;97.30
364;DHT22;173;48.718;9.274;2022-12-11T08:01:52;-0.20;97.10
364;DHT22;173;48.718;9.274;2022-12-11T08:04:24;-0.20;96.70
364;DHT22;173;48.718;9.274;2022-12-11T08:06:56;-0.20;97.10
364;DHT22;173;48.718;9.274;2022-12-11T08:09:28;-0.10;96.60
364;DHT22;173;48.718;9.274;2022-12-11T08:12:00;-0.10;96.60
364;DHT22;173;48.718;9.274;2022-12-11T08:14:32;0.00;96.70
364;DHT22;173;48.718;9.274;2022-12-11T08:17:06;-0.10;95.90
364;DHT22;173;48.718;9.274;2022-12-11T08:19:38;0.00;96.10
364;DHT22;173;48.718;9.274;2022-12-11T08:22:10;-0.10;96.00
364;DHT22;173;48.718;9.274;2022-12-11T08:24:45;-0.10;95.90
364;DHT22;173;48.718;9.274;2022-12-11T08:27:19;-0.10;96.00
364;DHT22;173;48.718;9.274;2022-12-11T08:29:51;0.00;96.20
364;DHT22;173;48.718;9.274;2022-12-11T08:32:23;0.00;95.10
364;DHT22;173;48.718;9.274;2022-12-11T08:34:57;0.00;95.20
364;DHT22;173;48.718;9.274;2022-12-11T08:40:03;-0.10;95.60
364;DHT22;173;48.718;9.274;2022-12-11T08:42:37;0.00;94.60
364;DHT22;173;48.718;9.274;2022-12-11T08:45:10;0.10;94.20
364;DHT22;173;48.718;9.274;2022-12-11T08:47:40;0.10;94.40
364;DHT22;173;48.718;9.274;2022-12-11T08:50:12;0.30;95.50
364;DHT22;173;48.718;9.274;2022-12-11T08:52:46;0.40;95.20
364;DHT22;173;48.718;9.274;2022-12-11T08:55:20;0.60;94.70
364;DHT22;173;48.718;9.274;2022-12-11T08:57:54;0.60;93.90
364;DHT22;173;48.718;9.274;2022-12-11T09:00:28;0.60;94.60
364;DHT22;173;48.718;9.274;2022-12-11T09:03:02;0.80;93.80
364;DHT22;173;48.718;9.274;2022-12-11T09:05:38;0.60;93.20
364;DHT22;173;48.718;9.274;2022-12-11T09:08:10;0.30;93.80
364;DHT22;173;48.718;9.274;2022-12-11T09:10:44;0.20;94.70
364;DHT22;173;48.718;9.274;2022-12-11T09:13:18;0.20;94.60
364;DHT22;173;48.718;9.274;2022-12-11T09:15:51;0.20;95.00
364;DHT22;173;48.718;9.274;2022-12-11T09:18:25;0.20;95.10
364;DHT22;173;48.718;9.274;2022-12-11T09:21:04;0.20;94.80
364;DHT22;173;48.718;9.274;2022-12-11T09:23:39;0.10;95.40
364;DHT22;173;48.718;9.274;2022-12-11T09:26:15;0.20;95.80
364;DHT22;173;48.718;9.274;2022-12-11T09:28:50;0.20;95.60
364;DHT22;173;48.718;9.274;2022-12-11T09:31:26;0.10;95.50
364;DHT22;173;48.718;9.274;2022-12-11T09:34:03;0.00;96.00
364;DHT22;173;48.718;9.274;2022-12-11T09:36:39;-0.10;96.20
364;DHT22;173;48.718;9.274;2022-12-11T09:39:12;-0.10;96.80
364;DHT22;173;48.718;9.274;2022-12-11T09:42:03;-0.10;97.40
364;DHT22;173;48.718;9.274;2022-12-11T09:44:50;0.00;97.60
364;DHT22;173;48.718;9.274;2022-12-11T09:47:37;0.00;96.70
364;DHT22;173;48.718;9.274;2022-12-11T09:50:24;0.10;96.80
364;DHT22;173;48.718;9.274;2022-12-11T09:53:11;0.10;97.10
364;DHT22;173;48.718;9.274;2022-12-11T09:55:54;0.10;97.50
364;DHT22;173;48.718;9.274;2022-12-11T10:05:00;0.00;97.10
364;DHT22;173;48.718;9.274;2022-12-11T10:07:38;0.00;97.60
364;DHT22;173;48.718;9.274;2022-12-11T10:16:00;0.40;96.90
364;DHT22;173;48.718;9.274;2022-12-11T10:18:42;0.60;96.30
364;DHT22;173;48.718;9.274;2022-12-11T10:21:17;0.80;96.10
364;DHT22;173;48.718;9.274;2022-12-11T10:23:57;0.80;94.50
364;DHT22;173;48.718;9.274;2022-12-11T10:26:32;0.80;95.10
364;DHT22;173;48.718;9.274;2022-12-11T10:29:11;0.90;94.80
364;DHT22;173;48.718;9.274;2022-12-11T10:31:59;0.90;94.10
364;DHT22;173;48.718;9.274;2022-12-11T10:34:41;1.00;94.60
364;DHT22;173;48.718;9.274;2022-12-11T10:37:11;1.20;94.20
364;DHT22;173;48.718;9.274;2022-12-11T10:39:45;1.20;92.70
364;DHT22;173;48.718;9.274;2022-12-11T10:42:19;1.10;92.50
364;DHT22;173;48.718;9.274;2022-12-11T10:45:00;1.10;93.20
364;DHT22;173;48.718;9.274;2022-12-11T10:47:33;1.00;93.00
364;DHT22;173;48.718;9.274;2022-12-11T10:50:05;1.10;93.80
364;DHT22;173;48.718;9.274;2022-12-11T10:52:37;1.20;93.30
364;DHT22;173;48.718;9.274;2022-12-11T10:55:21;1.30;92.50
364;DHT22;173;48.718;9.274;2022-12-11T10:57:58;1.20;92.10
364;DHT22;173;48.718;9.274;2022-12-11T11:00:38;0.90;93.00
364;DHT22;173;48.718;9.274;2022-12-11T11:03:22;0.90;93.70
364;DHT22;173;48.718;9.274;2022-12-11T11:06:12;1.00;92.90
364;DHT22;173;48.718;9.274;2022-12-11T11:08:53;0.90;92.40
364;DHT22;173;48.718;9.274;2022-12-11T11:11:31;0.80;93.80
364;DHT22;173;48.718;9.274;2022-12-11T11:14:16;0.70;93.90
364;DHT22;173;48.718;9.274;2022-12-11T11:16:54;0.80;93.90
364;DHT22;173;48.718;9.274;2022-12-11T11:19:34;1.00;94.30
364;DHT22;173;48.718;9.274;2022-12-11T11:22:12;1.10;93.70
364;DHT22;173;48.718;9.274;2022-12-11T11:24:57;1.00;93.40
364;DHT22;173;48.718;9.274;2022-12-11T11:27:33;1.10;93.60
364;DHT22;173;48.718;9.274;2022-12-11T11:30:33;1.20;93.30
364;DHT22;173;48.718;9.274;2022-12-11T11:32:54;1.00;93.00
364;DHT22;173;48.718;9.274;2022-12-11T11:35:33;1.00;92.70
364;DHT22;173;48.718;9.274;2022-12-11T11:38:23;1.10;92.60
364;DHT22;173;48.718;9.274;2022-12-11T11:41:18;1.20;92.60
364;DHT22;173;48.718;9.274;2022-12-11T11:43:54;1.10;91.50
364;DHT22;173;48.718;9.274;2022-12-11T11:47:13;1.20;91.90
364;DHT22;173;48.718;9.274;2022-12-11T11:49:49;1.30;91.40
364;DHT22;173;48.718;9.274;2022-12-11T11:52:33;1.20;90.40
364;DHT22;173;48.718;9.274;2022-12-11T11:55:07;1.10;90.30
364;DHT22;173;48.718;9.274;2022-12-11T11:57:52;1.10;91.40
364;DHT22;173;48.718;9.274;2022-12-11T12:00:29;1.20;90.90
364;DHT22;173;48.718;9.274;2022-12-11T12:03:05;1.20;91.60
364;DHT22;173;48.718;9.274;2022-12-11T12:05:53;1.30;91.90
364;DHT22;173;48.718;9.274;2022-12-11T12:17:55;1.40;92.20
364;DHT22;173;48.718;9.274;2022-12-11T12:26:50;1.80;90.90
364;DHT22;173;48.718;9.274;2022-12-11T12:29:46;1.90;91.20
364;DHT22;173;48.718;9.274;2022-12-11T12:32:26;2.10;91.30
364;DHT22;173;48.718;9.274;2022-12-11T12:38:09;2.10;89.00
364;DHT22;173;48.718;9.274;2022-12-11T12:46:50;1.60;90.50
364;DHT22;173;48.718;9.274;2022-12-11T12:49:34;1.60;90.40
364;DHT22;173;48.718;9.274;2022-12-11T12:52:36;1.60;90.50
364;DHT22;173;48.718;9.274;2022-12-11T12:55:15;1.60;90.40
364;DHT22;173;48.718;9.274;2022-12-11T12:57:56;1.60;90.80
364;DHT22;173;48.718;9.274;2022-12-11T13:00:42;1.60;91.20
364;DHT22;173;48.718;9.274;2022-12-11T13:03:23;1.70;91.40
364;DHT22;173;48.718;9.274;2022-12-11T13:06:03;1.70;90.60
364;DHT22;173;48.718;9.274;2022-12-11T13:08:50;1.70;91.30
364;DHT22;173;48.718;9.274;2022-12-11T13:11:30;1.50;91.90
364;DHT22;173;48.718;9.274;2022-12-11T13:14:30;1.10;93.60
364;DHT22;173;48.718;9.274;2022-12-11T13:16:50;1.00;95.10
364;DHT22;173;48.718;9.274;2022-12-11T13:19:27;1.00;96.20
364;DHT22;173;48.718;9.274;2022-12-11T13:25:15;1.10;96.80
364;DHT22;173;48.718;9.274;2022-12-11T13:27:50;1.20;96.80
364;DHT22;173;48.718;9.274;2022-12-11T13:30:24;1.40;96.90
364;DHT22;173;48.718;9.274;2022-12-11T13:33:07;1.40;96.30
364;DHT22;173;48.718;9.274;2022-12-11T13:35:39;1.50;95.90
364;DHT22;173;48.718;9.274;2022-12-11T13:38:19;1.60;95.90
364;DHT22;173;48.718;9.274;2022-12-11T13:40:54;1.70;95.90
364;DHT22;173;48.718;9.274;2022-12-11T13:43:28;1.80;95.60
364;DHT22;173;48.718;9.274;2022-12-11T13:47:16;1.70;94.60
364;DHT22;173;48.718;9.274;2022-12-11T13:49:55;1.80;95.10
364;DHT22;173;48.718;9.274;2022-12-11T13:52:38;1.70;93.40
364;DHT22;173;48.718;9.274;2022-12-11T13:55:25;1.80;93.40
364;DHT22;173;48.718;9.274;2022-12-11T13:57:59;1.90;93.40
364;DHT22;173;48.718;9.274;2022-12-11T14:00:32;1.80;93.10
364;DHT22;173;48.718;9.274;2022-12-11T14:03:06;1.80;93.70
364;DHT22;173;48.718;9.274;2022-12-11T14:05:40;1.80;93.90
364;DHT22;173;48.718;9.274;2022-12-11T14:08:16;1.80;94.00
364;DHT22;173;48.718;9.274;2022-12-11T14:10:46;1.80;93.90
364;DHT22;173;48.718;9.274;2022-12-11T14:13:32;1.80;93.70
364;DHT22;173;48.718;9.274;2022-12-11T14:16:06;1.70;93.60
364;DHT22;173;48.718;9.274;2022-12-11T14:18:40;1.60;94.10
364;DHT22;173;48.718;9.274;2022-12-11T14:21:23;1.50;94.50
364;DHT22;173;48.718;9.274;2022-12-11T14:23:58;1.30;95.00
364;DHT22;173;48.718;9.274;2022-12-11T14:29:05;1.10;95.80
364;DHT22;173;48.718;9.274;2022-12-11T14:31:44;1.00;95.90
364;DHT22;173;48.718;9.274;2022-12-11T14:34:20;0.90;96.20
364;DHT22;173;48.718;9.274;2022-12-11T14:36:54;0.90;96.40
364;DHT22;173;48.718;9.274;2022-12-11T14:39:37;0.80;96.60
364;DHT22;173;48.718;9.274;2022-12-11T14:42:14;0.90;97.10
364;DHT22;173;48.718;9.274;2022-12-11T14:44:57;1.00;97.10
364;DHT22;173;48.718;9.274;2022-12-11T14:47:42;1.20;97.10
364;DHT22;173;48.718;9.274;2022-12-11T14:50:21;1.20;96.60
364;DHT22;173;48.718;9.274;2022-12-11T14:53:00;1.20;96.40
364;DHT22;173;48.718;9.274;2022-12-11T14:55:30;1.20;96.40
364;DHT22;173;48.718;9.274;2022-12-11T14:58:14;1.20;96.20
364;DHT22;173;48.718;9.274;2022-12-11T15:01:04;1.20;96.50
364;DHT22;173;48.718;9.274;2022-12-11T15:03:41;1.20;96.50
364;DHT22;173;48.718;9.274;2022-12-11T15:06:42;1.20;96.60
364;DHT22;173;48.718;9.274;2022-12-11T15:09:24;0.90;96.10
364;DHT22;173;48.718;9.274;2022-12-11T15:12:10;0.90;96.60
364;DHT22;173;48.718;9.274;2022-12-11T15:14:55;0.80;96.40
364;DHT22;173;48.718;9.274;2022-12-11T15:17:29;0.70;96.80
364;DHT22;173;48.718;9.274;2022-12-11T15:20:06;0.70;97.30
364;DHT22;173;48.718;9.274;2022-12-11T15:22:41;0.60;97.10
364;DHT22;173;48.718;9.274;2022-12-11T15:25:27;0.50;97.30
364;DHT22;173;48.718;9.274;2022-12-11T15:28:00;0.40;97.80
364;DHT22;173;48.718;9.274;2022-12-11T15:30:34;0.40;98.10
364;DHT22;173;48.718;9.274;2022-12-11T15:38:36;0.30;98.00
364;DHT22;173;48.718;9.274;2022-12-11T15:41:17;0.20;98.20
364;DHT22;173;48.718;9.274;2022-12-11T15:43:55;0.20;98.50
364;DHT22;173;48.718;9.274;2022-12-11T15:46:29;0.10;98.70
364;DHT22;173;48.718;9.274;2022-12-11T15:49:10;0.10;99.10
364;DHT22;173;48.718;9.274;2022-12-11T15:51:42;0.20;99.20
364;DHT22;173;48.718;9.274;2022-12-11T15:54:14;0.20;98.90
364;DHT22;173;48.718;9.274;2022-12-11T15:56:46;0.20;98.90
364;DHT22;173;48.718;9.274;2022-12-11T15:59:19;0.20;99.10
364;DHT22;173;48.718;9.274;2022-12-11T16:01:51;0.20;98.90
364;DHT22;173;48.718;9.274;2022-12-11T16:04:23;0.20;98.70
364;DHT22;173;48.718;9.274;2022-12-11T16:06:56;0.10;98.80
364;DHT22;173;48.718;9.274;2022-12-11T16:09:28;0.00;99.20
364;DHT22;173;48.718;9.274;2022-12-11T16:12:01;0.10;99.50
364;DHT22;173;48.718;9.274;2022-12-11T16:14:35;0.10;99.50
364;DHT22;173;48.718;9.274;2022-12-11T16:17:10;0.10;99.50
364;DHT22;173;48.718;9.274;2022-12-11T16:19:44;0.10;99.50
364;DHT22;173;48.718;9.274;2022-12-11T16:22:18;0.10;99.50
364;DHT22;173;48.718;9.274;2022-12-11T16:24:54;0.10;99.50
364;DHT22;173;48.718;9.274;2022-12-11T16:27:26;0.10;99.50
364;DHT22;173;48.718;9.274;2022-12-11T16:29:57;0.10;99.50
364;DHT22;173;48.718;9.274;2022-12-11T16:32:28;0.20;99.50
364;DHT22;173;48.718;9.274;2022-12-11T16:35:00;0.20;99.40
364;DHT22;173;48.718;9.274;2022-12-11T16:37:33;0.10;99.30
364;DHT22;173;48.718;9.274;2022-12-11T16:40:08;0.20;99.50
364;DHT22;173;48.718;9.274;2022-12-11T16:42:41;0.30;99.50
364;DHT22;173;48.718;9.274;2022-12-11T16:45:17;0.30;99.30
364;DHT22;173;48.718;9.274;2022-12-11T16:47:56;0.40;99.20
364;DHT22;173;48.718;9.274;2022-12-11T16:50:26;0.40;99.00
364;DHT22;173;48.718;9.274;2022-12-11T16:52:59;0.40;99.10
364;DHT22;173;48.718;9.274;2022-12-11T16:55:31;0.30;99.10
364;DHT22;173;48.718;9.274;2022-12-11T16:58:01;0.40;99.10
364;DHT22;173;48.718;9.274;2022-12-11T17:00:31;0.40;99.10
364;DHT22;173;48.718;9.274;2022-12-11T17:03:03;0.40;99.00
364;DHT22;173;48.718;9.274;2022-12-11T17:06:41;0.30;98.80
364;DHT22;173;48.718;9.274;2022-12-11T17:09:13;0.30;98.90
364;DHT22;173;48.718;9.274;2022-12-11T17:11:46;0.40;99.50
364;DHT22;173;48.718;9.274;2022-12-11T17:14:17;0.90;99.50
364;DHT22;173;48.718;9.274;2022-12-11T17:16:49;1.00;99.50
364;DHT22;173;48.718;9.274;2022-12-11T17:19:22;1.20;99.50
364;DHT22;173;48.718;9.274;2022-12-11T17:21:54;1.00;99.50
364;DHT22;173;48.718;9.274;2022-12-11T17:24:26;0.90;98.50
364;DHT22;173;48.718;9.274;2022-12-11T17:26:58;0.90;98.50
364;DHT22;173;48.718;9.274;2022-12-11T17:29:30;0.90;98.20
364;DHT22;173;48.718;9.274;2022-12-11T17:32:02;0.80;97.40
364;DHT22;173;48.718;9.274;2022-12-11T17:34:34;0.60;97.40
364;DHT22;173;48.718;9.274;2022-12-11T17:37:06;0.50;97.70
364;DHT22;173;48.718;9.274;2022-12-11T17:39:38;0.50;97.90
364;DHT22;173;48.718;9.274;2022-12-11T17:42:10;0.40;98.00
364;DHT22;173;48.718;9.274;2022-12-11T17:44:41;0.40;98.30
364;DHT22;173;48.718;9.274;2022-12-11T17:47:13;0.30;98.30
364;DHT22;173;48.718;9.274;2022-12-11T17:49:45;0.20;98.30
364;DHT22;173;48.718;9.274;2022-12-11T17:52:17;0.20;98.50
364;DHT22;173;48.718;9.274;2022-12-11T17:54:51;0.10;98.80
364;DHT22;173;48.718;9.274;2022-12-11T17:58:27;0.10;98.80
364;DHT22;173;48.718;9.274;2022-12-11T18:02:31;0.00;99.20
364;DHT22;173;48.718;9.274;2022-12-11T18:05:03;0.00;99.30
364;DHT22;173;48.718;9.274;2022-12-11T18:07:38;0.00;99.40
364;DHT22;173;48.718;9.274;2022-12-11T18:10:10;0.00;99.40
364;DHT22;173;48.718;9.274;2022-12-11T18:12:43;-0.10;99.50
364;DHT22;173;48.718;9.274;2022-12-11T18:15:15;-0.10;99.50
364;DHT22;173;48.718;9.274;2022-12-11T18:17:47;0.00;99.50
364;DHT22;173;48.718;9.274;2022-12-11T18:20:19;0.10;99.50
364;DHT22;173;48.718;9.274;2022-12-11T18:22:52;0.10;99.50
364;DHT22;173;48.718;9.274;2022-12-11T18:25:24;0.10;99.50
364;DHT22;173;48.718;9.274;2022-12-11T18:27:56;0.10;99.50
364;DHT22;173;48.718;9.274;2022-12-11T18:30:28;0.10;99.50
364;DHT22;173;48.718;9.274;2022-12-11T18:33:00;0.10;99.50
364;DHT22;173;48.718;9.274;2022-12-11T18:35:33;0.10;99.50
364;DHT22;173;48.718;9.274;2022-12-11T18:38:04;0.20;99.50
364;DHT22;173;48.718;9.274;2022-12-11T18:40:38;0.20;99.50
364;DHT22;173;48.718;9.274;2022-12-11T18:43:08;0.20;99.50
364;DHT22;173;48.718;9.274;2022-12-11T18:45:41;0.10;99.50
364;DHT22;173;48.718;9.274;2022-12-11T18:48:14;0.10;99.50
364;DHT22;173;48.718;9.274;2022-12-11T18:50:48;0.20;99.50
364;DHT22;173;48.718;9.274;2022-12-11T18:53:21;0.10;99.50
364;DHT22;173;48.718;9.274;2022-12-11T18:55:53;0.20;99.50
364;DHT22;173;48.718;9.274;2022-12-11T18:58:25;0.20;99.50
364;DHT22;173;48.718;9.274;2022-12-11T19:00:57;0.20;99.50
364;DHT22;173;48.718;9.274;2022-12-11T19:03:30;0.20;99.50
364;DHT22;173;48.718;9.274;2022-12-11T19:06:07;0.10;99.50
364;DHT22;173;48.718;9.274;2022-12-11T19:08:41;0.10;99.50